Cusseta, Alabama
Current Conditions -  °F | °C
As of 7:15 AM on Sunday 23 Nov 2014 (Local Time) from KAUO Reporting Station
Overcast Overcast  
Wind Chill: 55°   Ceiling: 400
Heat Index: 55°   Visibility: 10mi
Dew Point: 54°   Wind: 12mph
Humidity: 94%   Direction: 100°E
Pressure: 29.94"   Gusts: 18mph
Location:  32.79°N, 85.31°W
Report Text: KAUO 231315Z AUTO 10010G16KT 10SM OVC004 13/12 A2994 RMK AO1
Loading
Personal Weather Stations






























Interactive Weather Map New forecast layout! Learn more

10-Day Weather Forecast

Advertisements
Track Severe Weather on mobile